createdAt,value
2023-01-29T00:02:13.442Z,70.82
2023-01-29T00:05:27.468Z,71.58
2023-01-29T00:08:30.710Z,71.37
2023-01-29T00:11:35.807Z,71.06
2023-01-29T00:14:38.460Z,71.95
2023-01-29T00:17:41.040Z,71.49
2023-01-29T00:20:45.210Z,71.36
2023-01-29T00:23:48.640Z,71.80
2023-01-29T00:26:52.673Z,71.03
2023-01-29T00:30:12.914Z,71.26
2023-01-29T00:33:16.195Z,70.83
2023-01-29T00:36:20.617Z,71.73
2023-01-29T00:39:33.671Z,71.36
2023-01-29T00:43:03.279Z,71.34
2023-01-29T00:46:06.586Z,71.14
2023-01-29T00:49:09.785Z,71.78
2023-01-29T00:52:24.429Z,71.77
2023-01-29T00:55:27.078Z,71.35
2023-01-29T00:58:34.326Z,71.67
2023-01-29T01:01:56.018Z,71.70
2023-01-29T01:04:59.049Z,71.25
2023-01-29T01:08:01.696Z,71.57
2023-01-29T01:11:06.407Z,71.44
2023-01-29T01:14:10.398Z,71.01
2023-01-29T01:17:13.181Z,71.13
2023-01-29T01:20:16.179Z,70.56
2023-01-29T01:23:19.668Z,71.31
2023-01-29T01:26:22.331Z,71.22
2023-01-29T01:29:26.381Z,71.00
2023-01-29T01:32:29.013Z,70.71
2023-01-29T01:35:31.628Z,70.66
2023-01-29T01:38:34.273Z,69.85
2023-01-29T01:41:36.976Z,70.73
2023-01-29T01:44:54.646Z,70.93
2023-01-29T01:48:02.410Z,70.31
2023-01-29T01:51:06.513Z,70.84
2023-01-29T01:54:12.864Z,71.07
2023-01-29T01:57:18.644Z,71.39
2023-01-29T02:00:26.107Z,71.99
2023-01-29T02:03:51.872Z,71.50
2023-01-29T02:07:14.709Z,70.35
2023-01-29T02:10:19.341Z,71.56
2023-01-29T02:13:23.366Z,70.98
2023-01-29T02:16:27.693Z,70.42
2023-01-29T02:19:45.538Z,70.57
2023-01-29T02:23:16.898Z,70.08
2023-01-29T02:26:40.970Z,69.77
2023-01-29T02:29:56.945Z,69.82
2023-01-29T02:33:09.304Z,69.46
2023-01-29T02:36:23.077Z,70.13
2023-01-29T02:39:34.149Z,72.51
2023-01-29T02:42:44.533Z,69.01
2023-01-29T02:45:53.252Z,68.80
2023-01-29T02:49:01.948Z,69.18
2023-01-29T02:52:09.798Z,69.59
2023-01-29T02:55:16.294Z,69.35
2023-01-29T02:58:29.181Z,69.07
2023-01-29T03:01:39.912Z,68.71
2023-01-29T03:04:47.591Z,70.27
2023-01-29T03:07:55.957Z,71.38
2023-01-29T03:11:14.352Z,69.82
2023-01-29T03:14:24.174Z,69.74
2023-01-29T03:17:37.337Z,69.33
2023-01-29T03:20:48.198Z,70.17
2023-01-29T03:24:12.930Z,69.15
2023-01-29T03:27:38.928Z,68.94
2023-01-29T03:31:06.419Z,70.29
2023-01-29T03:34:34.652Z,69.11
2023-01-29T03:37:43.687Z,69.31
2023-01-29T03:40:53.073Z,69.15
2023-01-29T03:44:07.142Z,69.80
2023-01-29T03:47:18.036Z,69.67
2023-01-29T03:50:34.409Z,69.48
2023-01-29T03:53:44.129Z,69.53
2023-01-29T03:57:15.517Z,69.53
2023-01-29T04:00:27.857Z,69.58
2023-01-29T04:03:40.091Z,69.22
2023-01-29T04:06:47.656Z,69.54
2023-01-29T04:09:53.738Z,70.62
2023-01-29T04:13:01.930Z,71.12
2023-01-29T04:16:10.613Z,68.66
2023-01-29T04:19:39.734Z,69.96
2023-01-29T04:22:49.558Z,69.12
2023-01-29T04:26:06.883Z,68.86
2023-01-29T04:29:22.031Z,69.46
2023-01-29T04:32:32.555Z,68.85
2023-01-29T04:35:48.627Z,69.43
2023-01-29T04:39:02.787Z,69.51
2023-01-29T04:42:13.576Z,69.53
2023-01-29T04:45:23.181Z,69.64
2023-01-29T04:48:32.250Z,69.86
2023-01-29T04:51:45.174Z,68.94
2023-01-29T04:55:01.488Z,69.23
2023-01-29T04:58:11.581Z,69.63
2023-01-29T05:01:17.635Z,69.58
2023-01-29T05:04:21.777Z,69.79
2023-01-29T05:07:26.530Z,69.47
2023-01-29T05:10:30.900Z,69.55
2023-01-29T05:13:39.397Z,70.40
2023-01-29T05:16:45.649Z,70.13
2023-01-29T05:19:48.955Z,70.68
2023-01-29T05:22:53.845Z,71.20
2023-01-29T05:25:58.185Z,70.72
2023-01-29T05:29:00.916Z,71.03
2023-01-29T05:32:04.103Z,71.85
2023-01-29T05:35:07.571Z,70.53
2023-01-29T05:38:10.471Z,71.78
2023-01-29T05:41:18.051Z,71.97
2023-01-29T05:44:20.679Z,71.69
2023-01-29T05:47:23.431Z,71.28
2023-01-29T05:50:27.202Z,71.24
2023-01-29T05:53:33.358Z,72.89
2023-01-29T05:56:37.297Z,71.76
2023-01-29T05:59:40.047Z,71.96
2023-01-29T06:02:42.919Z,70.68
2023-01-29T06:05:45.647Z,71.36
2023-01-29T06:08:48.601Z,70.72
2023-01-29T06:11:52.682Z,72.38
2023-01-29T06:14:55.621Z,72.83
2023-01-29T06:17:58.280Z,72.38
2023-01-29T06:21:02.603Z,73.09
2023-01-29T06:24:06.047Z,71.87
2023-01-29T06:27:10.035Z,71.90
2023-01-29T06:30:13.693Z,71.50
2023-01-29T06:33:16.369Z,71.10
2023-01-29T06:36:19.121Z,71.17
2023-01-29T06:39:21.810Z,70.69
2023-01-29T06:42:28.091Z,70.81
2023-01-29T06:45:30.966Z,70.67
2023-01-29T06:48:33.941Z,71.52
2023-01-29T06:51:36.622Z,71.76
2023-01-29T06:54:39.311Z,71.10
2023-01-29T06:57:43.328Z,70.07
2023-01-29T07:00:47.161Z,70.82
2023-01-29T07:03:50.901Z,69.66
2023-01-29T07:06:53.665Z,69.82
2023-01-29T07:09:56.298Z,69.77
2023-01-29T07:13:00.704Z,69.32
2023-01-29T07:16:04.857Z,70.62
2023-01-29T07:19:07.589Z,69.47
2023-01-29T07:22:10.223Z,69.68
2023-01-29T07:25:12.984Z,69.52
2023-01-29T07:28:17.375Z,68.82
2023-01-29T07:31:20.287Z,68.88
2023-01-29T07:34:23.073Z,68.80
2023-01-29T07:37:25.707Z,68.00
2023-01-29T07:40:29.096Z,68.35
2023-01-29T07:43:33.516Z,69.75
2023-01-29T07:46:36.403Z,68.35
2023-01-29T07:49:39.152Z,67.89
2023-01-29T07:52:41.746Z,66.47
2023-01-29T07:55:45.409Z,66.77
2023-01-29T07:58:49.536Z,66.83
2023-01-29T08:01:52.304Z,66.12
2023-01-29T08:04:54.961Z,66.75
2023-01-29T08:08:06.632Z,66.89
2023-01-29T08:11:09.935Z,65.84
2023-01-29T08:14:14.021Z,66.24
2023-01-29T08:17:16.791Z,66.77
2023-01-29T08:20:20.978Z,65.53
2023-01-29T08:23:23.890Z,66.95
2023-01-29T08:26:27.395Z,65.38
2023-01-29T08:29:31.654Z,64.75
2023-01-29T08:32:34.434Z,63.72
2023-01-29T08:35:37.374Z,65.17
2023-01-29T08:38:40.228Z,64.71
2023-01-29T08:41:42.865Z,64.19
2023-01-29T08:44:46.909Z,65.66
2023-01-29T08:47:50.217Z,64.94
2023-01-29T08:50:53.013Z,63.91
2023-01-29T08:53:55.835Z,63.51
2023-01-29T08:56:58.595Z,62.82
2023-01-29T09:00:03.887Z,63.49
2023-01-29T09:03:08.048Z,62.89
2023-01-29T09:06:12.618Z,63.43
2023-01-29T09:09:15.567Z,63.78
2023-01-29T09:12:18.241Z,63.95
2023-01-29T09:15:22.801Z,63.11
2023-01-29T09:18:25.550Z,63.44
2023-01-29T09:21:28.398Z,64.00
2023-01-29T09:24:32.633Z,65.88
2023-01-29T09:27:35.329Z,64.34
2023-01-29T09:30:40.322Z,63.78
2023-01-29T09:33:43.218Z,63.24
2023-01-29T09:36:46.327Z,64.55
2023-01-29T09:39:49.189Z,65.11
2023-01-29T09:42:57.806Z,65.22
2023-01-29T09:46:06.403Z,66.03
2023-01-29T09:49:15.656Z,65.36
2023-01-29T09:52:23.678Z,66.02
2023-01-29T09:55:28.732Z,67.39
2023-01-29T09:58:35.793Z,66.89
2023-01-29T10:01:49.860Z,65.95
2023-01-29T10:05:13.254Z,65.76
2023-01-29T10:08:37.033Z,66.22
2023-01-29T10:11:52.676Z,65.37
2023-01-29T10:15:03.380Z,64.88
2023-01-29T10:18:33.837Z,65.17
2023-01-29T10:22:02.179Z,66.02
2023-01-29T10:25:10.393Z,64.45
2023-01-29T10:28:18.551Z,65.59
2023-01-29T10:31:28.097Z,66.57
2023-01-29T10:34:39.014Z,66.69
2023-01-29T10:37:42.813Z,66.53
2023-01-29T10:40:50.538Z,65.21
2023-01-29T10:44:05.155Z,65.30
2023-01-29T10:47:21.324Z,65.17
2023-01-29T10:50:39.400Z,64.07
2023-01-29T10:53:57.442Z,63.06
2023-01-29T10:57:11.231Z,63.19
2023-01-29T11:00:21.583Z,62.32
2023-01-29T11:03:28.641Z,62.91
2023-01-29T11:06:35.074Z,63.79
2023-01-29T11:09:43.950Z,64.47
2023-01-29T11:12:46.684Z,63.51
2023-01-29T11:16:10.016Z,64.54
2023-01-29T11:19:13.342Z,66.46
2023-01-29T11:22:20.108Z,66.96
2023-01-29T11:25:23.138Z,65.89
2023-01-29T11:28:37.262Z,66.42
2023-01-29T11:31:40.359Z,66.98
2023-01-29T11:35:05.154Z,67.30
2023-01-29T11:38:18.950Z,67.48
2023-01-29T11:41:24.329Z,67.09
2023-01-29T11:44:29.588Z,67.54
2023-01-29T11:47:32.770Z,66.78
2023-01-29T11:50:35.735Z,65.29
2023-01-29T11:53:43.424Z,66.08
2023-01-29T11:56:47.956Z,65.50
2023-01-29T11:59:52.509Z,64.21
2023-01-29T12:02:57.896Z,65.37
2023-01-29T12:06:04.532Z,65.96
2023-01-29T12:09:16.852Z,66.03
2023-01-29T12:12:32.223Z,64.93
2023-01-29T12:15:35.340Z,64.84
2023-01-29T12:18:41.684Z,65.20
2023-01-29T12:21:50.953Z,65.19
2023-01-29T12:24:59.392Z,65.73
2023-01-29T12:28:10.984Z,65.24
2023-01-29T12:31:27.473Z,66.40
2023-01-29T12:34:43.427Z,66.20
2023-01-29T12:37:55.575Z,66.19
2023-01-29T12:41:08.003Z,64.94
2023-01-29T12:44:15.763Z,64.72
2023-01-29T12:47:23.491Z,66.38
2023-01-29T12:50:29.251Z,65.63
2023-01-29T12:53:35.180Z,66.00
2023-01-29T12:56:43.600Z,66.93
2023-01-29T12:59:49.885Z,66.47
2023-01-29T13:02:59.724Z,65.58
2023-01-29T13:06:07.319Z,65.39
2023-01-29T13:09:16.938Z,66.14
2023-01-29T13:12:23.186Z,66.22
2023-01-29T13:15:30.213Z,65.85
2023-01-29T13:18:44.200Z,66.07
2023-01-29T13:21:48.244Z,65.90
2023-01-29T13:25:03.644Z,65.79
2023-01-29T13:28:17.073Z,66.39
2023-01-29T13:31:28.930Z,67.68
2023-01-29T13:34:34.920Z,67.67
2023-01-29T13:37:42.691Z,69.16
2023-01-29T13:40:50.203Z,69.04
2023-01-29T13:43:54.391Z,68.90
2023-01-29T13:46:59.427Z,68.17
2023-01-29T13:50:07.686Z,67.66
2023-01-29T13:53:22.675Z,67.97
2023-01-29T13:56:41.654Z,69.23
2023-01-29T13:59:55.287Z,68.97
2023-01-29T14:03:45.033Z,69.08
2023-01-29T14:06:55.349Z,71.01
2023-01-29T14:10:14.389Z,72.43
2023-01-29T14:13:34.135Z,72.86
2023-01-29T14:16:38.700Z,72.71
2023-01-29T14:20:15.444Z,73.02
2023-01-29T14:23:36.019Z,74.25
2023-01-29T14:26:45.641Z,74.03
2023-01-29T14:29:48.600Z,74.38
2023-01-29T14:32:52.786Z,74.87
2023-01-29T14:35:58.183Z,75.31
2023-01-29T14:39:01.403Z,75.92
2023-01-29T14:42:15.412Z,74.68
2023-01-29T14:45:38.219Z,74.29
2023-01-29T14:48:48.686Z,74.82
2023-01-29T14:51:52.213Z,75.00
2023-01-29T14:54:59.692Z,74.93
2023-01-29T14:58:03.721Z,74.33
2023-01-29T15:01:21.038Z,74.33
2023-01-29T15:04:28.186Z,73.84
2023-01-29T15:07:35.671Z,74.00
2023-01-29T15:10:44.930Z,73.26
2023-01-29T15:13:53.727Z,73.40
2023-01-29T15:17:06.267Z,74.21
2023-01-29T15:20:30.281Z,73.35
2023-01-29T15:23:34.321Z,73.35
2023-01-29T15:26:37.047Z,72.68
2023-01-29T15:29:41.743Z,73.45
2023-01-29T15:32:46.040Z,73.48
2023-01-29T15:36:06.692Z,73.94
2023-01-29T15:39:18.900Z,74.60
2023-01-29T15:42:23.530Z,73.75
2023-01-29T15:45:30.954Z,73.92
2023-01-29T15:48:37.670Z,73.55
2023-01-29T15:51:44.055Z,73.90
2023-01-29T15:54:47.748Z,73.52
2023-01-29T15:57:51.078Z,74.50
2023-01-29T16:00:55.719Z,73.82
2023-01-29T16:04:03.315Z,72.42
2023-01-29T16:07:07.670Z,71.48
2023-01-29T16:10:17.994Z,72.39
2023-01-29T16:13:24.331Z,73.02
2023-01-29T16:16:28.150Z,72.84
2023-01-29T16:19:31.059Z,72.08
2023-01-29T16:22:37.570Z,71.32
2023-01-29T16:25:40.920Z,72.58
2023-01-29T16:28:45.260Z,71.69
2023-01-29T16:31:51.596Z,72.00
2023-01-29T16:34:57.533Z,71.91
2023-01-29T16:38:04.929Z,71.81
2023-01-29T16:41:15.565Z,71.37
2023-01-29T16:44:38.392Z,71.70
2023-01-29T16:47:41.694Z,71.83
2023-01-29T16:50:54.659Z,72.93
2023-01-29T16:54:02.362Z,73.27
2023-01-29T16:57:05.363Z,74.06
2023-01-29T17:00:20.065Z,73.99
2023-01-29T17:03:27.524Z,74.07
2023-01-29T17:06:32.661Z,73.44
2023-01-29T17:09:38.462Z,73.62
2023-01-29T17:12:41.528Z,73.93
2023-01-29T17:15:46.749Z,74.07
2023-01-29T17:18:50.274Z,73.89
2023-01-29T17:21:53.083Z,73.66
2023-01-29T17:24:57.625Z,72.99
2023-01-29T17:28:01.765Z,70.89
2023-01-29T17:31:07.008Z,67.70
2023-01-29T17:34:12.793Z,66.94
2023-01-29T17:37:16.449Z,65.35
2023-01-29T17:40:31.724Z,65.41
2023-01-29T17:43:35.124Z,65.74
2023-01-29T17:46:38.149Z,64.65
2023-01-29T17:49:42.127Z,64.65
2023-01-29T17:52:45.419Z,65.07
2023-01-29T17:55:50.514Z,64.59
2023-01-29T17:58:53.300Z,65.62
2023-01-29T18:01:56.765Z,64.84
2023-01-29T18:04:59.941Z,64.55
2023-01-29T18:08:03.094Z,65.01
2023-01-29T18:11:10.850Z,64.58
2023-01-29T18:14:14.735Z,64.75
2023-01-29T18:17:22.294Z,64.86
2023-01-29T18:20:28.160Z,65.65
2023-01-29T18:23:31.404Z,63.81
2023-01-29T18:26:36.183Z,64.72
2023-01-29T18:29:39.222Z,63.82
2023-01-29T18:32:42.096Z,63.07
2023-01-29T18:35:45.197Z,63.80
2023-01-29T18:38:48.613Z,62.92
2023-01-29T18:41:52.939Z,63.77
2023-01-29T18:44:55.981Z,63.60
2023-01-29T18:47:58.798Z,63.57
2023-01-29T18:51:01.639Z,61.95
2023-01-29T18:54:05.201Z,62.40
2023-01-29T18:57:14.429Z,63.29
2023-01-29T19:00:32.784Z,63.18
2023-01-29T19:03:36.352Z,64.27
2023-01-29T19:06:39.360Z,64.02
2023-01-29T19:09:45.611Z,64.71
2023-01-29T19:12:50.353Z,65.18
2023-01-29T19:15:54.198Z,66.34
2023-01-29T19:18:58.568Z,68.14
2023-01-29T19:22:02.405Z,68.72
2023-01-29T19:25:06.802Z,68.56
2023-01-29T19:28:11.514Z,69.61
2023-01-29T19:31:14.889Z,69.80
2023-01-29T19:34:18.312Z,69.91
2023-01-29T19:37:21.498Z,70.05
2023-01-29T19:40:25.582Z,68.19
2023-01-29T19:43:33.109Z,67.64
2023-01-29T19:46:36.633Z,67.16
2023-01-29T19:49:40.668Z,67.59
2023-01-29T19:52:52.022Z,67.95
2023-01-29T19:55:59.769Z,69.30
2023-01-29T19:59:07.248Z,70.12
2023-01-29T20:02:10.848Z,70.94
2023-01-29T20:05:17.242Z,70.39
2023-01-29T20:08:22.298Z,70.66
2023-01-29T20:11:25.410Z,72.49
2023-01-29T20:14:31.056Z,71.89
2023-01-29T20:17:34.134Z,72.37
2023-01-29T20:20:39.808Z,72.53
2023-01-29T20:23:45.677Z,70.48
2023-01-29T20:26:49.377Z,70.01
2023-01-29T20:29:53.849Z,70.27
2023-01-29T20:32:57.104Z,70.34
2023-01-29T20:36:02.138Z,69.96
2023-01-29T20:39:04.797Z,70.34
2023-01-29T20:42:07.503Z,68.81
2023-01-29T20:45:12.331Z,69.47
2023-01-29T20:48:15.286Z,68.67
2023-01-29T20:51:18.903Z,69.12
2023-01-29T20:54:21.627Z,70.14
2023-01-29T20:57:24.817Z,70.41
2023-01-29T21:00:28.878Z,70.78
2023-01-29T21:03:31.864Z,71.08
2023-01-29T21:06:34.746Z,72.04
2023-01-29T21:09:37.798Z,71.51
2023-01-29T21:12:41.493Z,72.28
2023-01-29T21:15:45.955Z,72.27
2023-01-29T21:18:48.627Z,71.39
2023-01-29T21:21:51.520Z,72.89
2023-01-29T21:24:54.439Z,72.16
2023-01-29T21:27:57.910Z,71.92
2023-01-29T21:31:07.271Z,70.64
2023-01-29T21:34:10.491Z,71.26
2023-01-29T21:37:13.202Z,72.11
2023-01-29T21:40:16.736Z,70.53
2023-01-29T21:43:19.774Z,70.98
2023-01-29T21:46:23.769Z,70.46
2023-01-29T21:49:26.815Z,69.93
2023-01-29T21:52:29.506Z,69.84
2023-01-29T21:55:32.779Z,69.43
2023-01-29T21:58:35.708Z,69.70
2023-01-29T22:01:39.779Z,67.95
2023-01-29T22:04:42.836Z,68.86
2023-01-29T22:07:45.555Z,69.00
2023-01-29T22:10:48.290Z,69.32
2023-01-29T22:13:51.014Z,68.89
2023-01-29T22:16:55.002Z,69.84
2023-01-29T22:20:07.778Z,69.81
2023-01-29T22:23:12.539Z,70.35
2023-01-29T22:26:15.772Z,70.40
2023-01-29T22:29:19.581Z,71.31
2023-01-29T22:32:23.658Z,69.40
2023-01-29T22:35:26.360Z,68.50
2023-01-29T22:38:29.485Z,67.81
2023-01-29T22:41:33.709Z,68.27
2023-01-29T22:44:36.455Z,68.65
2023-01-29T22:47:40.617Z,68.38
2023-01-29T22:50:52.976Z,70.26
2023-01-29T22:53:57.078Z,69.24
2023-01-29T22:56:59.695Z,70.09
2023-01-29T23:00:02.738Z,70.68
2023-01-29T23:03:07.516Z,71.13
2023-01-29T23:06:10.461Z,71.80
2023-01-29T23:09:13.075Z,72.24
2023-01-29T23:12:16.131Z,72.11
2023-01-29T23:15:18.782Z,72.15
2023-01-29T23:18:22.736Z,72.29
2023-01-29T23:21:26.208Z,72.63
2023-01-29T23:24:28.932Z,73.18
2023-01-29T23:27:31.537Z,73.63
2023-01-29T23:30:34.258Z,72.57
2023-01-29T23:33:38.897Z,72.88
2023-01-29T23:36:41.841Z,72.70
2023-01-29T23:39:44.740Z,73.64
2023-01-29T23:42:48.420Z,73.52
2023-01-29T23:45:51.151Z,74.02
2023-01-29T23:48:55.178Z,74.02
2023-01-29T23:51:57.999Z,74.13
2023-01-29T23:55:00.733Z,73.45
2023-01-29T23:58:03.719Z,74.09
